TKY433 EKBI-EETN
Flight info
| Callsign | TKY433 |
|---|---|
| Flight time | 1h 28m |
| Altitude | 35000 |
| Route | INTET DCT RADIS DCT OSMUR |
| Aircraft | B738/M-SDE2E3FGHIRWXY/LB1 |
Departure
| Time | 2026-05-01 11:31 |
|---|---|
| Airport | Billund Airport (EKBI) |
Arrival
| Time | 2026-05-01 13:00 |
|---|---|
| Airport | Lennart Meri Tallinn Airport (EETN) |
| Time | Latitude | Longitude | Altitude | Speed | Heading |
|---|---|---|---|---|---|
| 2026-05-01 11:10 | 55.74533 | 9.14882 | 240 ft | 0 kts | 357° |
| 2026-05-01 11:21 | 55.74526 | 9.14882 | 240 ft | 2 kts | 358° |
| 2026-05-01 11:21 | 55.74509 | 9.14883 | 240 ft | 2 kts | 358° |
| 2026-05-01 11:22 | 55.74493 | 9.14884 | 240 ft | 2 kts | 360° |
| 2026-05-01 11:22 | 55.74476 | 9.14883 | 240 ft | 2 kts | 4° |
| 2026-05-01 11:22 | 55.74460 | 9.14878 | 240 ft | 2 kts | 29° |
| 2026-05-01 11:22 | 55.74452 | 9.14859 | 240 ft | 1 kts | 85° |
| 2026-05-01 11:23 | 55.74451 | 9.14854 | 240 ft | 0 kts | 86° |
| 2026-05-01 11:25 | 55.74452 | 9.14878 | 240 ft | 5 kts | 88° |
| 2026-05-01 11:25 | 55.74424 | 9.14963 | 240 ft | 12 kts | 153° |
| 2026-05-01 11:26 | 55.74334 | 9.14985 | 240 ft | 14 kts | 176° |
| 2026-05-01 11:26 | 55.74200 | 9.15133 | 240 ft | 13 kts | 89° |
| 2026-05-01 11:26 | 55.74205 | 9.15309 | 240 ft | 17 kts | 87° |
| 2026-05-01 11:27 | 55.74212 | 9.15559 | 240 ft | 23 kts | 87° |
| 2026-05-01 11:27 | 55.74222 | 9.15883 | 240 ft | 29 kts | 86° |
| 2026-05-01 11:27 | 55.74232 | 9.16183 | 240 ft | 23 kts | 86° |
| 2026-05-01 11:27 | 55.74240 | 9.16462 | 240 ft | 22 kts | 87° |
| 2026-05-01 11:28 | 55.74249 | 9.16733 | 240 ft | 22 kts | 87° |
| 2026-05-01 11:28 | 55.74257 | 9.16995 | 240 ft | 21 kts | 86° |
| 2026-05-01 11:28 | 55.74265 | 9.17249 | 240 ft | 20 kts | 86° |
| 2026-05-01 11:29 | 55.74281 | 9.17737 | 240 ft | 19 kts | 87° |
| 2026-05-01 11:29 | 55.74287 | 9.17959 | 240 ft | 10 kts | 90° |
| 2026-05-01 11:29 | 55.74223 | 9.18141 | 240 ft | 9 kts | 163° |
| 2026-05-01 11:30 | 55.74161 | 9.18147 | 240 ft | 9 kts | 187° |
| 2026-05-01 11:30 | 55.74125 | 9.18067 | 241 ft | 9 kts | 259° |
| 2026-05-01 11:30 | 55.74124 | 9.18056 | 241 ft | 0 kts | 263° |
| 2026-05-01 11:30 | 55.74124 | 9.18042 | 241 ft | 6 kts | 264° |
| 2026-05-01 11:31 | 55.74112 | 9.17707 | 241 ft | 62 kts | 267° |
| 2026-05-01 11:31 | 55.74074 | 9.16528 | 244 ft | 128 kts | 266° |
| 2026-05-01 11:31 | 55.74016 | 9.14611 | 286 ft | 179 kts | 266° |
| 2026-05-01 11:31 | 55.73950 | 9.12309 | 898 ft | 190 kts | 262° |
| 2026-05-01 11:32 | 55.73968 | 9.10113 | 2001 ft | 177 kts | 282° |
| 2026-05-01 11:32 | 55.74640 | 9.08233 | 2775 ft | 197 kts | 320° |
| 2026-05-01 11:32 | 55.76016 | 9.07459 | 3043 ft | 230 kts | 359° |
| 2026-05-01 11:32 | 55.77666 | 9.07700 | 3526 ft | 245 kts | 1° |
| 2026-05-01 11:33 | 55.79419 | 9.07671 | 3960 ft | 262 kts | 353° |
| 2026-05-01 11:33 | 55.81276 | 9.07318 | 4732 ft | 271 kts | 352° |
| 2026-05-01 11:33 | 55.83162 | 9.06922 | 5644 ft | 275 kts | 352° |
| 2026-05-01 11:33 | 55.85070 | 9.06538 | 6557 ft | 278 kts | 353° |
| 2026-05-01 11:34 | 55.87008 | 9.06180 | 7382 ft | 282 kts | 353° |
| 2026-05-01 11:34 | 55.88979 | 9.05829 | 8170 ft | 287 kts | 354° |
| 2026-05-01 11:34 | 55.90986 | 9.05478 | 8969 ft | 292 kts | 354° |
| 2026-05-01 11:34 | 55.93029 | 9.05215 | 9748 ft | 297 kts | 5° |
| 2026-05-01 11:35 | 55.94995 | 9.06204 | 10468 ft | 300 kts | 30° |
| 2026-05-01 11:35 | 55.96785 | 9.08223 | 10919 ft | 316 kts | 36° |
| 2026-05-01 11:35 | 55.98654 | 9.10585 | 11100 ft | 340 kts | 37° |
| 2026-05-01 11:35 | 56.00632 | 9.13146 | 11313 ft | 361 kts | 37° |
| 2026-05-01 11:36 | 56.02686 | 9.15797 | 11853 ft | 370 kts | 37° |
| 2026-05-01 11:36 | 56.04795 | 9.18499 | 12612 ft | 372 kts | 37° |
| 2026-05-01 11:36 | 56.06907 | 9.21185 | 13397 ft | 374 kts | 36° |
| 2026-05-01 11:36 | 56.09046 | 9.23894 | 14110 ft | 378 kts | 36° |
| 2026-05-01 11:37 | 56.11215 | 9.26639 | 14742 ft | 382 kts | 36° |
| 2026-05-01 11:37 | 56.13397 | 9.29401 | 15417 ft | 385 kts | 36° |
| 2026-05-01 11:37 | 56.15578 | 9.32166 | 16101 ft | 387 kts | 36° |
| 2026-05-01 11:37 | 56.17792 | 9.34975 | 16753 ft | 390 kts | 36° |
| 2026-05-01 11:38 | 56.20016 | 9.37801 | 17356 ft | 394 kts | 36° |
| 2026-05-01 11:38 | 56.22230 | 9.40622 | 17973 ft | 396 kts | 36° |
| 2026-05-01 11:38 | 56.24367 | 9.43872 | 18608 ft | 399 kts | 44° |
| 2026-05-01 11:38 | 56.26299 | 9.47392 | 19146 ft | 401 kts | 46° |
| 2026-05-01 11:39 | 56.28223 | 9.51048 | 19650 ft | 405 kts | 46° |
| 2026-05-01 11:39 | 56.30164 | 9.54748 | 20165 ft | 408 kts | 46° |
| 2026-05-01 11:39 | 56.32136 | 9.58473 | 20695 ft | 410 kts | 46° |
| 2026-05-01 11:39 | 56.34108 | 9.62158 | 21200 ft | 413 kts | 45° |
| 2026-05-01 11:40 | 56.36125 | 9.65899 | 21674 ft | 417 kts | 45° |
| 2026-05-01 11:40 | 56.38166 | 9.69675 | 22174 ft | 419 kts | 45° |
| 2026-05-01 11:40 | 56.40216 | 9.73464 | 22666 ft | 422 kts | 45° |
| 2026-05-01 11:40 | 56.42255 | 9.77238 | 23137 ft | 425 kts | 45° |
| 2026-05-01 11:41 | 56.44337 | 9.81099 | 23577 ft | 429 kts | 45° |
| 2026-05-01 11:41 | 56.46421 | 9.84974 | 24023 ft | 431 kts | 44° |
| 2026-05-01 11:41 | 56.48527 | 9.88895 | 24414 ft | 434 kts | 44° |
| 2026-05-01 11:41 | 56.50630 | 9.92815 | 24807 ft | 436 kts | 44° |
| 2026-05-01 11:42 | 56.52732 | 9.96764 | 25167 ft | 439 kts | 46° |
| 2026-05-01 11:42 | 56.54638 | 10.01146 | 25522 ft | 443 kts | 55° |
| 2026-05-01 11:42 | 56.56138 | 10.06044 | 25901 ft | 445 kts | 62° |
| 2026-05-01 11:42 | 56.57487 | 10.11025 | 26261 ft | 447 kts | 63° |
| 2026-05-01 11:43 | 56.58840 | 10.16149 | 26600 ft | 450 kts | 63° |
| 2026-05-01 11:43 | 56.60186 | 10.21270 | 26938 ft | 452 kts | 63° |
| 2026-05-01 11:43 | 56.61551 | 10.26443 | 27271 ft | 454 kts | 63° |
| 2026-05-01 11:44 | 56.64312 | 10.36828 | 27919 ft | 458 kts | 63° |
| 2026-05-01 11:44 | 56.65705 | 10.42046 | 28230 ft | 460 kts | 63° |
| 2026-05-01 11:44 | 56.67110 | 10.47307 | 28542 ft | 462 kts | 63° |
| 2026-05-01 11:44 | 56.68510 | 10.52551 | 28831 ft | 464 kts | 63° |
| 2026-05-01 11:45 | 56.69926 | 10.57865 | 29103 ft | 466 kts | 63° |
| 2026-05-01 11:45 | 56.71343 | 10.63198 | 29388 ft | 468 kts | 63° |
| 2026-05-01 11:45 | 56.72758 | 10.68537 | 29770 ft | 467 kts | 63° |
| 2026-05-01 11:45 | 56.74157 | 10.73827 | 30218 ft | 465 kts | 63° |
| 2026-05-01 11:46 | 56.75559 | 10.79143 | 30616 ft | 464 kts | 63° |
| 2026-05-01 11:46 | 56.76952 | 10.84436 | 30932 ft | 463 kts | 63° |
| 2026-05-01 11:46 | 56.78349 | 10.89761 | 31238 ft | 463 kts | 63° |
| 2026-05-01 11:46 | 56.79717 | 10.94982 | 31575 ft | 462 kts | 63° |
| 2026-05-01 11:47 | 56.81093 | 11.00250 | 31893 ft | 461 kts | 63° |
| 2026-05-01 11:47 | 56.82475 | 11.05550 | 32203 ft | 460 kts | 63° |
| 2026-05-01 11:47 | 56.83851 | 11.10843 | 32538 ft | 459 kts | 63° |
| 2026-05-01 11:47 | 56.85222 | 11.16126 | 32846 ft | 459 kts | 64° |
| 2026-05-01 11:48 | 56.86582 | 11.21382 | 33123 ft | 458 kts | 64° |
| 2026-05-01 11:48 | 56.87944 | 11.26656 | 33420 ft | 458 kts | 64° |
| 2026-05-01 11:48 | 56.89293 | 11.31895 | 33746 ft | 456 kts | 64° |
| 2026-05-01 11:48 | 56.90647 | 11.37162 | 34060 ft | 456 kts | 64° |
| 2026-05-01 11:49 | 56.91992 | 11.42408 | 34323 ft | 455 kts | 64° |
| 2026-05-01 11:49 | 56.93336 | 11.47665 | 34555 ft | 455 kts | 64° |
| 2026-05-01 11:49 | 56.94665 | 11.52873 | 34809 ft | 454 kts | 64° |
| 2026-05-01 11:49 | 56.96010 | 11.58156 | 35031 ft | 454 kts | 64° |
| 2026-05-01 11:50 | 56.97339 | 11.63388 | 35224 ft | 454 kts | 64° |
| 2026-05-01 11:50 | 56.98670 | 11.68642 | 35380 ft | 455 kts | 64° |
| 2026-05-01 11:50 | 57.01349 | 11.79251 | 35381 ft | 458 kts | 64° |
| 2026-05-01 11:51 | 57.04008 | 11.89838 | 35366 ft | 454 kts | 64° |
| 2026-05-01 11:51 | 57.06629 | 12.00320 | 35382 ft | 451 kts | 64° |
| 2026-05-01 11:52 | 57.09241 | 12.10816 | 35378 ft | 450 kts | 64° |
| 2026-05-01 11:52 | 57.11840 | 12.21308 | 35380 ft | 450 kts | 64° |
| 2026-05-01 11:53 | 57.14411 | 12.31740 | 35385 ft | 451 kts | 64° |
| 2026-05-01 11:53 | 57.17006 | 12.42317 | 35378 ft | 453 kts | 64° |
| 2026-05-01 11:54 | 57.19602 | 12.52949 | 35372 ft | 455 kts | 64° |
| 2026-05-01 11:54 | 57.22197 | 12.63630 | 35366 ft | 457 kts | 64° |
| 2026-05-01 11:55 | 57.24777 | 12.74303 | 35365 ft | 459 kts | 64° |
| 2026-05-01 11:55 | 57.27377 | 12.85111 | 35353 ft | 460 kts | 64° |
| 2026-05-01 11:56 | 57.29972 | 12.95955 | 35347 ft | 461 kts | 64° |
| 2026-05-01 11:56 | 57.32558 | 13.06811 | 35340 ft | 461 kts | 64° |
| 2026-05-01 11:57 | 57.34701 | 13.15852 | 35337 ft | 461 kts | 64° |
| 2026-05-01 11:57 | 57.37699 | 13.28561 | 35330 ft | 460 kts | 65° |
| 2026-05-01 11:58 | 57.40247 | 13.39423 | 35327 ft | 459 kts | 65° |
| 2026-05-01 11:59 | 57.44044 | 13.55711 | 35324 ft | 458 kts | 65° |
| 2026-05-01 11:59 | 57.46132 | 13.64722 | 35320 ft | 457 kts | 65° |
| 2026-05-01 12:00 | 57.50289 | 13.82776 | 35317 ft | 457 kts | 65° |
| 2026-05-01 12:01 | 57.53615 | 13.97332 | 35299 ft | 457 kts | 65° |
| 2026-05-01 12:01 | 57.56073 | 14.08152 | 35289 ft | 457 kts | 65° |
| 2026-05-01 12:02 | 57.58555 | 14.19136 | 35302 ft | 457 kts | 65° |
| 2026-05-01 12:02 | 57.60996 | 14.29994 | 35284 ft | 457 kts | 65° |
| 2026-05-01 12:03 | 57.63450 | 14.40967 | 35284 ft | 458 kts | 65° |
| 2026-05-01 12:03 | 57.65894 | 14.51953 | 35290 ft | 459 kts | 65° |
| 2026-05-01 12:04 | 57.68334 | 14.62978 | 35280 ft | 459 kts | 65° |
| 2026-05-01 12:04 | 57.70769 | 14.74037 | 35279 ft | 460 kts | 65° |
| 2026-05-01 12:05 | 57.73194 | 14.85113 | 35272 ft | 460 kts | 65° |
| 2026-05-01 12:05 | 57.76817 | 15.01771 | 35269 ft | 460 kts | 65° |
| 2026-05-01 12:06 | 57.79205 | 15.12825 | 35265 ft | 461 kts | 65° |
| 2026-05-01 12:06 | 57.81613 | 15.24030 | 35258 ft | 461 kts | 65° |
| 2026-05-01 12:07 | 57.83983 | 15.35115 | 35255 ft | 460 kts | 66° |
| 2026-05-01 12:07 | 57.86358 | 15.46290 | 35247 ft | 460 kts | 66° |
| 2026-05-01 12:08 | 57.88716 | 15.57441 | 35263 ft | 459 kts | 66° |
| 2026-05-01 12:08 | 57.91062 | 15.68597 | 35249 ft | 458 kts | 66° |
| 2026-05-01 12:09 | 57.93394 | 15.79749 | 35247 ft | 458 kts | 66° |
| 2026-05-01 12:09 | 57.95717 | 15.90921 | 35239 ft | 458 kts | 66° |
| 2026-05-01 12:10 | 57.99156 | 16.07569 | 35235 ft | 457 kts | 66° |
| 2026-05-01 12:11 | 58.02619 | 16.24473 | 35233 ft | 457 kts | 66° |
| 2026-05-01 12:11 | 58.04902 | 16.35695 | 35233 ft | 457 kts | 66° |
| 2026-05-01 12:12 | 58.07157 | 16.46846 | 35230 ft | 458 kts | 66° |
| 2026-05-01 12:12 | 58.09422 | 16.58105 | 35226 ft | 458 kts | 66° |
| 2026-05-01 12:13 | 58.11675 | 16.69369 | 35232 ft | 458 kts | 66° |
| 2026-05-01 12:13 | 58.13920 | 16.80657 | 35226 ft | 459 kts | 66° |
| 2026-05-01 12:14 | 58.16157 | 16.91975 | 35219 ft | 459 kts | 66° |
| 2026-05-01 12:14 | 58.18385 | 17.03304 | 35224 ft | 459 kts | 66° |
| 2026-05-01 12:15 | 58.20599 | 17.14632 | 35221 ft | 458 kts | 66° |
| 2026-05-01 12:15 | 58.22800 | 17.25956 | 35221 ft | 458 kts | 66° |
| 2026-05-01 12:16 | 58.24996 | 17.37324 | 35222 ft | 458 kts | 66° |
| 2026-05-01 12:16 | 58.27187 | 17.48731 | 35227 ft | 458 kts | 66° |
| 2026-05-01 12:17 | 58.29357 | 17.60091 | 35220 ft | 458 kts | 66° |
| 2026-05-01 12:17 | 58.31519 | 17.71480 | 35222 ft | 458 kts | 66° |
| 2026-05-01 12:18 | 58.33655 | 17.82800 | 35222 ft | 457 kts | 66° |
| 2026-05-01 12:18 | 58.35796 | 17.94211 | 35221 ft | 457 kts | 66° |
| 2026-05-01 12:19 | 58.37923 | 18.05612 | 35219 ft | 457 kts | 66° |
| 2026-05-01 12:19 | 58.40043 | 18.17052 | 35220 ft | 457 kts | 66° |
| 2026-05-01 12:20 | 58.42152 | 18.28493 | 35219 ft | 457 kts | 66° |
| 2026-05-01 12:20 | 58.44250 | 18.39949 | 35219 ft | 457 kts | 66° |
| 2026-05-01 12:21 | 58.46335 | 18.51401 | 35225 ft | 457 kts | 66° |
| 2026-05-01 12:21 | 58.48396 | 18.62792 | 35215 ft | 457 kts | 66° |
| 2026-05-01 12:22 | 58.50477 | 18.74361 | 35214 ft | 457 kts | 66° |
| 2026-05-01 12:22 | 58.52517 | 18.85776 | 35215 ft | 457 kts | 66° |
| 2026-05-01 12:23 | 58.54564 | 18.97300 | 35213 ft | 457 kts | 66° |
| 2026-05-01 12:23 | 58.56594 | 19.08798 | 35214 ft | 457 kts | 66° |
| 2026-05-01 12:24 | 58.58620 | 19.20344 | 35212 ft | 457 kts | 67° |
| 2026-05-01 12:24 | 58.60638 | 19.31921 | 35214 ft | 457 kts | 67° |
| 2026-05-01 12:25 | 58.63622 | 19.49173 | 35217 ft | 456 kts | 67° |
| 2026-05-01 12:26 | 58.65612 | 19.60767 | 35217 ft | 456 kts | 67° |
| 2026-05-01 12:26 | 58.68568 | 19.78130 | 35212 ft | 456 kts | 67° |
| 2026-05-01 12:27 | 58.71500 | 19.95516 | 35215 ft | 456 kts | 67° |
| 2026-05-01 12:28 | 58.74397 | 20.12864 | 35220 ft | 455 kts | 67° |
| 2026-05-01 12:29 | 58.77288 | 20.30347 | 35216 ft | 455 kts | 67° |
| 2026-05-01 12:29 | 58.80145 | 20.47795 | 35217 ft | 455 kts | 67° |
| 2026-05-01 12:30 | 58.82963 | 20.65180 | 35218 ft | 455 kts | 68° |
| 2026-05-01 12:31 | 58.84844 | 20.76877 | 35215 ft | 454 kts | 68° |
| 2026-05-01 12:31 | 58.86700 | 20.88498 | 35216 ft | 454 kts | 68° |
| 2026-05-01 12:32 | 58.88548 | 21.00149 | 35219 ft | 454 kts | 68° |
| 2026-05-01 12:32 | 58.90392 | 21.11847 | 35063 ft | 457 kts | 68° |
| 2026-05-01 12:32 | 58.91318 | 21.17749 | 34813 ft | 456 kts | 68° |
| 2026-05-01 12:33 | 58.92232 | 21.23609 | 34567 ft | 454 kts | 68° |
| 2026-05-01 12:33 | 58.93142 | 21.29456 | 34330 ft | 454 kts | 68° |
| 2026-05-01 12:33 | 58.94054 | 21.35331 | 34080 ft | 455 kts | 68° |
| 2026-05-01 12:33 | 58.94961 | 21.41198 | 33806 ft | 456 kts | 68° |
| 2026-05-01 12:34 | 58.95872 | 21.47106 | 33542 ft | 457 kts | 68° |
| 2026-05-01 12:34 | 58.96780 | 21.53016 | 33274 ft | 458 kts | 68° |
| 2026-05-01 12:34 | 58.97684 | 21.58925 | 33011 ft | 458 kts | 68° |
| 2026-05-01 12:34 | 58.98587 | 21.64845 | 32749 ft | 458 kts | 68° |
| 2026-05-01 12:35 | 58.99488 | 21.70777 | 32488 ft | 459 kts | 68° |
| 2026-05-01 12:35 | 59.00391 | 21.76742 | 32231 ft | 459 kts | 68° |
| 2026-05-01 12:35 | 59.01282 | 21.82656 | 31974 ft | 458 kts | 68° |
| 2026-05-01 12:35 | 59.02168 | 21.88561 | 31554 ft | 452 kts | 69° |
| 2026-05-01 12:36 | 59.03036 | 21.94369 | 31108 ft | 447 kts | 69° |
| 2026-05-01 12:36 | 59.03898 | 22.00153 | 30631 ft | 443 kts | 69° |
| 2026-05-01 12:36 | 59.04749 | 22.05872 | 30144 ft | 439 kts | 69° |
| 2026-05-01 12:36 | 59.05592 | 22.11560 | 29601 ft | 435 kts | 69° |
| 2026-05-01 12:37 | 59.06405 | 22.17067 | 29131 ft | 430 kts | 69° |
| 2026-05-01 12:37 | 59.07228 | 22.22659 | 28648 ft | 426 kts | 69° |
| 2026-05-01 12:37 | 59.08037 | 22.28170 | 28176 ft | 421 kts | 69° |
| 2026-05-01 12:37 | 59.08836 | 22.33632 | 27671 ft | 418 kts | 69° |
| 2026-05-01 12:38 | 59.09624 | 22.39032 | 27218 ft | 414 kts | 69° |
| 2026-05-01 12:38 | 59.10405 | 22.44411 | 26750 ft | 411 kts | 69° |
| 2026-05-01 12:38 | 59.11179 | 22.49748 | 26293 ft | 408 kts | 69° |
| 2026-05-01 12:38 | 59.11947 | 22.55067 | 25838 ft | 405 kts | 69° |
| 2026-05-01 12:39 | 59.12702 | 22.60316 | 25386 ft | 403 kts | 69° |
| 2026-05-01 12:39 | 59.13456 | 22.65571 | 24935 ft | 401 kts | 69° |
| 2026-05-01 12:39 | 59.14203 | 22.70790 | 24488 ft | 399 kts | 69° |
| 2026-05-01 12:39 | 59.14936 | 22.75931 | 24024 ft | 398 kts | 69° |
| 2026-05-01 12:40 | 59.15681 | 22.81177 | 23518 ft | 396 kts | 69° |
| 2026-05-01 12:40 | 59.16402 | 22.86272 | 23030 ft | 394 kts | 69° |
| 2026-05-01 12:40 | 59.17125 | 22.91399 | 22558 ft | 391 kts | 69° |
| 2026-05-01 12:40 | 59.17842 | 22.96498 | 22104 ft | 388 kts | 69° |
| 2026-05-01 12:41 | 59.18549 | 23.01550 | 21657 ft | 385 kts | 69° |
| 2026-05-01 12:41 | 59.19253 | 23.06587 | 21210 ft | 382 kts | 69° |
| 2026-05-01 12:41 | 59.19949 | 23.11581 | 20777 ft | 380 kts | 69° |
| 2026-05-01 12:41 | 59.20636 | 23.16531 | 20347 ft | 377 kts | 69° |
| 2026-05-01 12:42 | 59.21317 | 23.21446 | 19914 ft | 375 kts | 69° |
| 2026-05-01 12:42 | 59.21994 | 23.26353 | 19480 ft | 373 kts | 69° |
| 2026-05-01 12:42 | 59.22665 | 23.31233 | 19059 ft | 371 kts | 69° |
| 2026-05-01 12:42 | 59.23333 | 23.36097 | 18637 ft | 369 kts | 69° |
| 2026-05-01 12:43 | 59.23995 | 23.40932 | 18153 ft | 368 kts | 69° |
| 2026-05-01 12:43 | 59.24653 | 23.45752 | 17692 ft | 366 kts | 69° |
| 2026-05-01 12:43 | 59.25194 | 23.50600 | 17272 ft | 366 kts | 76° |
| 2026-05-01 12:43 | 59.25482 | 23.55536 | 16858 ft | 365 kts | 79° |
| 2026-05-01 12:44 | 59.25686 | 23.60480 | 16430 ft | 364 kts | 80° |
| 2026-05-01 12:44 | 59.25879 | 23.65342 | 16011 ft | 361 kts | 80° |
| 2026-05-01 12:44 | 59.26311 | 23.75072 | 15174 ft | 357 kts | 80° |
| 2026-05-01 12:45 | 59.26777 | 23.84681 | 14350 ft | 354 kts | 80° |
| 2026-05-01 12:45 | 59.27013 | 23.89473 | 13925 ft | 353 kts | 80° |
| 2026-05-01 12:45 | 59.27245 | 23.94233 | 13454 ft | 352 kts | 80° |
| 2026-05-01 12:46 | 59.27474 | 23.98987 | 13030 ft | 350 kts | 80° |
| 2026-05-01 12:46 | 59.27700 | 24.03721 | 12605 ft | 348 kts | 81° |
| 2026-05-01 12:46 | 59.27920 | 24.08421 | 12191 ft | 346 kts | 81° |
| 2026-05-01 12:46 | 59.28138 | 24.13076 | 11780 ft | 344 kts | 81° |
| 2026-05-01 12:47 | 59.28353 | 24.17731 | 11381 ft | 342 kts | 81° |
| 2026-05-01 12:47 | 59.28563 | 24.22290 | 10985 ft | 340 kts | 81° |
| 2026-05-01 12:47 | 59.28772 | 24.26866 | 10690 ft | 335 kts | 81° |
| 2026-05-01 12:47 | 59.28972 | 24.31326 | 10535 ft | 325 kts | 81° |
| 2026-05-01 12:48 | 59.29168 | 24.35686 | 10406 ft | 316 kts | 81° |
| 2026-05-01 12:48 | 59.29357 | 24.39913 | 10258 ft | 308 kts | 81° |
| 2026-05-01 12:48 | 59.29541 | 24.44040 | 10035 ft | 302 kts | 81° |
| 2026-05-01 12:48 | 59.29661 | 24.46752 | 9829 ft | 301 kts | 81° |
| 2026-05-01 12:49 | 59.29840 | 24.50827 | 9522 ft | 299 kts | 81° |
| 2026-05-01 12:49 | 59.30017 | 24.54886 | 9202 ft | 298 kts | 81° |
| 2026-05-01 12:49 | 59.30192 | 24.58931 | 8780 ft | 300 kts | 81° |
| 2026-05-01 12:49 | 59.30367 | 24.63000 | 8440 ft | 299 kts | 81° |
| 2026-05-01 12:50 | 59.30539 | 24.67048 | 8108 ft | 295 kts | 82° |
| 2026-05-01 12:50 | 59.30704 | 24.70995 | 7774 ft | 287 kts | 82° |
| 2026-05-01 12:50 | 59.30863 | 24.74825 | 7483 ft | 279 kts | 82° |
| 2026-05-01 12:50 | 59.31018 | 24.78570 | 7203 ft | 272 kts | 82° |
| 2026-05-01 12:51 | 59.31169 | 24.82234 | 6917 ft | 267 kts | 82° |
| 2026-05-01 12:51 | 59.31318 | 24.85826 | 6637 ft | 262 kts | 82° |
| 2026-05-01 12:51 | 59.31606 | 24.92860 | 6082 ft | 259 kts | 82° |
| 2026-05-01 12:52 | 59.31748 | 24.96378 | 5822 ft | 259 kts | 82° |
| 2026-05-01 12:52 | 59.32027 | 25.03401 | 5285 ft | 259 kts | 83° |
| 2026-05-01 12:52 | 59.32163 | 25.06893 | 4991 ft | 255 kts | 83° |
| 2026-05-01 12:53 | 59.32424 | 25.13591 | 4636 ft | 238 kts | 83° |
| 2026-05-01 12:53 | 59.32547 | 25.16775 | 4558 ft | 230 kts | 83° |
| 2026-05-01 12:53 | 59.32695 | 25.19802 | 4444 ft | 216 kts | 73° |
| 2026-05-01 12:54 | 59.33395 | 25.22221 | 4311 ft | 198 kts | 37° |
| 2026-05-01 12:54 | 59.35865 | 25.23889 | 4178 ft | 192 kts | 359° |
| 2026-05-01 12:54 | 59.37170 | 25.23931 | 4101 ft | 183 kts | 358° |
| 2026-05-01 12:55 | 59.39644 | 25.23852 | 3708 ft | 171 kts | 341° |
| 2026-05-01 12:55 | 59.40490 | 25.22429 | 3557 ft | 164 kts | 289° |
| 2026-05-01 12:55 | 59.40736 | 25.20227 | 3386 ft | 172 kts | 283° |
| 2026-05-01 12:56 | 59.40952 | 25.17882 | 3152 ft | 174 kts | 278° |
| 2026-05-01 12:56 | 59.41110 | 25.15533 | 2935 ft | 174 kts | 278° |
| 2026-05-01 12:56 | 59.41231 | 25.13222 | 2796 ft | 170 kts | 274° |
| 2026-05-01 12:56 | 59.41278 | 25.10888 | 2599 ft | 171 kts | 271° |
| 2026-05-01 12:57 | 59.41246 | 25.08597 | 2365 ft | 163 kts | 271° |
| 2026-05-01 12:57 | 59.41286 | 25.04351 | 1948 ft | 150 kts | 270° |
| 2026-05-01 12:57 | 59.41289 | 25.02384 | 1768 ft | 143 kts | 269° |
| 2026-05-01 12:58 | 59.41292 | 25.00417 | 1597 ft | 144 kts | 270° |
| 2026-05-01 12:58 | 59.41293 | 24.98459 | 1373 ft | 143 kts | 269° |
| 2026-05-01 12:58 | 59.41297 | 24.96500 | 1171 ft | 144 kts | 270° |
| 2026-05-01 12:59 | 59.41298 | 24.92637 | 767 ft | 139 kts | 268° |
| 2026-05-01 12:59 | 59.41265 | 24.90763 | 550 ft | 136 kts | 269° |
| 2026-05-01 12:59 | 59.41315 | 24.87194 | 231 ft | 126 kts | 270° |
| 2026-05-01 13:00 | 59.41323 | 24.84220 | 138 ft | 79 kts | 270° |
| 2026-05-01 13:00 | 59.41326 | 24.83384 | 141 ft | 44 kts | 270° |
| 2026-05-01 13:01 | 59.41369 | 24.82663 | 137 ft | 24 kts | 292° |
| 2026-05-01 13:01 | 59.41438 | 24.82408 | 138 ft | 18 kts | 300° |
| 2026-05-01 13:01 | 59.41502 | 24.81957 | 138 ft | 17 kts | 270° |
| 2026-05-01 13:02 | 59.41503 | 24.81732 | 138 ft | 16 kts | 270° |